Time;durP1;ratioP1;P1;durP2;ratioP2;P2;SDS_P1;SDS_P2;PMS_P1;PMS_P2;Temp;Humidity;BMP_temperature;BMP_pressure;BME280_temperature;BME280_humidity;BME280_pressure;Samples;Min_cycle;Max_cycle;Signal;HPM_P1;HPM_P2
2023/01/19 00:02:13;;;;;;;6.50;5.70;;;9.80;1.00;;;;;;5059885;28;20185;-39
2023/01/19 00:04:39;;;;;;;7.80;6.13;;;9.90;99.90;;;;;;5059554;28;20182;-37
2023/01/19 00:07:06;;;;;;;6.63;6.03;;;10.10;99.90;;;;;;5059977;28;20170;-41
2023/01/19 00:09:32;;;;;;;5.70;5.10;;;10.20;1.00;;;;;;5059084;28;20239;-40
2023/01/19 00:11:58;;;;;;;6.13;5.53;;;10.20;1.00;;;;;;5060116;28;20405;-37
2023/01/19 00:14:24;;;;;;;6.20;5.60;;;10.30;99.90;;;;;;5059564;28;20815;-38
2023/01/19 00:16:49;;;;;;;6.03;5.43;;;10.40;1.00;;;;;;5059843;28;20392;-36
2023/01/19 00:19:15;;;;;;;6.53;5.83;;;10.60;99.90;;;;;;5057999;28;20260;-37
2023/01/19 00:21:41;;;;;;;6.53;5.80;;;10.60;3.20;;;;;;5059397;28;20173;-39
2023/01/19 00:24:07;;;;;;;8.50;7.23;;;10.30;85.90;;;;;;5058694;28;20265;-38
2023/01/19 00:26:32;;;;;;;9.77;8.87;;;9.80;99.90;;;;;;5059298;28;20174;-36
2023/01/19 00:28:58;;;;;;;9.53;8.60;;;9.00;1.00;;;;;;5059402;28;20448;-36
2023/01/19 00:31:24;;;;;;;11.17;10.07;;;8.20;99.90;;;;;;5071877;28;20565;-36
2023/01/19 00:33:51;;;;;;;11.10;10.10;;;7.40;99.90;;;;;;5060451;28;20190;-41
2023/01/19 00:36:18;;;;;;;10.23;9.33;;;6.70;99.90;;;;;;5059817;28;20170;-38
2023/01/19 00:38:43;;;;;;;12.10;10.63;;;6.00;99.90;;;;;;5058500;28;20753;-36
2023/01/19 00:41:09;;;;;;;11.50;10.37;;;5.40;91.70;;;;;;5058948;28;20538;-37
2023/01/19 00:43:35;;;;;;;11.53;10.23;;;4.90;99.90;;;;;;5060564;28;20246;-37
2023/01/19 00:46:01;;;;;;;11.90;10.70;;;4.40;99.90;;;;;;5059820;28;20446;-36
2023/01/19 00:48:26;;;;;;;12.20;10.20;;;4.10;99.90;;;;;;5059639;28;20238;-41
2023/01/19 00:50:52;;;;;;;10.00;9.00;;;3.80;99.90;;;;;;5059122;28;20178;-37
2023/01/19 00:53:18;;;;;;;11.83;10.63;;;3.50;99.90;;;;;;5062037;28;20189;-37
2023/01/19 00:55:44;;;;;;;11.80;10.60;;;3.30;99.90;;;;;;5058764;28;20174;-36
2023/01/19 00:58:09;;;;;;;13.27;10.70;;;3.10;1.00;;;;;;5059506;28;20785;-36
2023/01/19 01:00:35;;;;;;;11.80;10.60;;;2.90;1.00;;;;;;5059052;28;20493;-38
2023/01/19 01:03:01;;;;;;;11.87;10.43;;;2.70;1.00;;;;;;5058975;28;20194;-36
2023/01/19 01:05:26;;;;;;;13.13;10.43;;;2.60;1.00;;;;;;5057631;28;20657;-38
2023/01/19 01:07:52;;;;;;;11.40;10.20;;;2.50;1.00;;;;;;5059079;28;20181;-40
2023/01/19 01:10:21;;;;;;;12.77;11.17;;;2.30;1.00;;;;;;5058571;28;20174;-37
2023/01/19 01:12:47;;;;;;;12.47;10.77;;;2.20;7.30;;;;;;5057943;28;20281;-36
2023/01/19 01:15:14;;;;;;;11.40;9.87;;;2.00;87.80;;;;;;5059109;28;20409;-38
2023/01/19 01:17:46;;;;;;;14.40;11.00;;;1.90;99.90;;;;;;5058611;28;20471;-40
2023/01/19 01:20:20;;;;;;;14.90;11.57;;;1.80;99.90;;;;;;5058488;28;20456;-38
2023/01/19 01:22:48;;;;;;;13.13;10.83;;;1.70;99.90;;;;;;5058682;28;20480;-38
2023/01/19 01:25:16;;;;;;;10.77;9.67;;;1.60;99.90;;;;;;5057682;28;20408;-37
2023/01/19 01:27:42;;;;;;;12.90;10.60;;;1.50;1.00;;;;;;5057760;28;20493;-39
2023/01/19 01:30:09;;;;;;;14.03;11.50;;;1.40;1.00;;;;;;5057902;28;20412;-37
2023/01/19 01:32:35;;;;;;;14.23;11.07;;;1.30;1.00;;;;;;5057060;28;20412;-36
2023/01/19 01:35:00;;;;;;;12.97;11.57;;;1.20;1.00;;;;;;5057125;28;20412;-36
2023/01/19 01:37:26;;;;;;;15.93;11.97;;;1.10;1.00;;;;;;5057114;28;20416;-37
2023/01/19 01:39:52;;;;;;;11.47;10.20;;;1.00;1.00;;;;;;5057803;28;20262;-41
2023/01/19 01:42:19;;;;;;;11.93;10.63;;;1.00;1.00;;;;;;5057902;28;20549;-37
2023/01/19 01:44:51;;;;;;;12.10;10.50;;;0.90;97.20;;;;;;5056945;28;20178;-38
2023/01/19 01:47:31;;;;;;;12.47;10.07;;;0.80;99.90;;;;;;5055973;28;20415;-42
2023/01/19 01:50:14;;;;;;;16.00;10.40;;;0.70;99.90;;;;;;5057279;28;20435;-41
2023/01/19 01:52:51;;;;;;;12.50;11.20;;;0.70;99.90;;;;;;5057195;28;20428;-38
2023/01/19 01:55:19;;;;;;;11.40;10.17;;;0.60;99.90;;;;;;5056633;28;20714;-36
2023/01/19 01:57:48;;;;;;;14.10;10.27;;;0.60;99.90;;;;;;5056817;28;20433;-39
2023/01/19 02:15:16;;;;;;;12.07;10.23;;;0.30;1.00;;;;;;5056880;28;20742;-37
2023/01/19 02:17:42;;;;;;;12.00;10.40;;;0.30;1.00;;;;;;5057044;28;20533;-36
2023/01/19 02:20:09;;;;;;;11.87;10.63;;;0.20;1.00;;;;;;5057026;28;20581;-36
2023/01/19 02:22:56;;;;;;;12.40;9.80;;;0.20;1.00;;;;;;5056758;28;20193;-37
2023/01/19 02:25:22;;;;;;;13.70;10.50;;;0.10;1.00;;;;;;5055948;28;20408;-38
2023/01/19 02:27:49;;;;;;;12.50;10.23;;;0.10;29.00;;;;;;5055401;28;20428;-38
2023/01/19 02:30:15;;;;;;;12.97;10.10;;;0.10;82.20;;;;;;5055874;28;20404;-37
2023/01/19 02:32:41;;;;;;;12.00;10.40;;;0.00;99.90;;;;;;5056287;28;20496;-37
2023/01/19 02:35:08;;;;;;;12.63;9.63;;;0.00;99.90;;;;;;5056633;28;20420;-36
2023/01/19 02:37:38;;;;;;;10.77;9.63;;;0.00;99.90;;;;;;5058380;28;20530;-37
2023/01/19 02:40:10;;;;;;;10.10;9.00;;;0.00;99.90;;;;;;5056639;28;20464;-37
2023/01/19 02:42:44;;;;;;;11.47;9.90;;;-0.10;99.90;;;;;;5056662;28;20518;-36
2023/01/19 02:45:13;;;;;;;11.97;10.00;;;-0.10;99.90;;;;;;5056701;28;20435;-38
2023/01/19 02:47:50;;;;;;;11.10;9.73;;;-0.10;99.90;;;;;;5056978;28;20470;-41
2023/01/19 02:50:42;;;;;;;16.10;10.47;;;-0.10;99.90;;;;;;5057545;28;20408;-36
2023/01/19 02:53:21;;;;;;;12.30;9.83;;;-0.20;99.90;;;;;;5057627;28;20420;-35
2023/01/19 02:55:54;;;;;;;11.53;8.77;;;-0.20;99.90;;;;;;5057340;28;20420;-39
2023/01/19 02:58:33;;;;;;;13.10;10.10;;;-0.20;99.90;;;;;;5056144;28;20440;-36
2023/01/19 03:01:20;;;;;;;12.00;10.03;;;-0.20;99.90;;;;;;5055992;28;20519;-37
2023/01/19 03:04:14;;;;;;;13.17;10.13;;;-0.20;99.90;;;;;;5058464;28;20434;-37
2023/01/19 03:06:50;;;;;;;10.23;9.13;;;-0.20;99.90;;;;;;5060030;28;20440;-36
2023/01/19 03:09:27;;;;;;;13.40;10.30;;;-0.30;99.90;;;;;;5060669;28;20408;-36
2023/01/19 03:12:04;;;;;;;11.30;10.10;;;-0.30;99.90;;;;;;5061204;28;20505;-37
2023/01/19 03:14:29;;;;;;;10.10;9.10;;;-0.30;99.90;;;;;;5060748;28;20534;-37
2023/01/19 03:17:01;;;;;;;11.87;10.27;;;-0.40;99.90;;;;;;5060737;28;20534;-37
2023/01/19 03:19:36;;;;;;;10.57;9.03;;;-0.30;97.70;;;;;;5061260;28;20551;-40
2023/01/19 03:22:28;;;;;;;10.53;9.00;;;-0.40;99.90;;;;;;5060421;28;20496;-39
2023/01/19 03:24:58;;;;;;;11.27;9.80;;;-0.40;82.80;;;;;;5059656;28;20427;-37
2023/01/19 03:27:29;;;;;;;10.80;8.93;;;-0.40;53.60;;;;;;5060550;28;20718;-36
2023/01/19 03:29:59;;;;;;;10.73;9.60;;;-0.50;92.30;;;;;;5060346;28;20530;-36
2023/01/19 03:32:29;;;;;;;12.27;9.87;;;-0.50;99.90;;;;;;5061095;28;20497;-36
2023/01/19 03:34:58;;;;;;;10.47;9.10;;;-0.50;90.10;;;;;;5061130;28;20498;-37
2023/01/19 03:37:25;;;;;;;12.90;10.13;;;-0.50;40.60;;;;;;5059862;28;20424;-36
2023/01/19 03:39:50;;;;;;;13.93;9.47;;;-0.60;23.30;;;;;;5060772;28;20490;-37
2023/01/19 03:42:17;;;;;;;12.13;9.90;;;-0.60;13.40;;;;;;5059389;28;20436;-38
2023/01/19 03:44:44;;;;;;;10.33;8.90;;;-0.60;5.10;;;;;;5059772;28;20181;-37
2023/01/19 03:47:11;;;;;;;11.50;9.90;;;-0.60;1.00;;;;;;5060666;28;20501;-35
2023/01/19 03:49:38;;;;;;;11.80;8.90;;;-0.60;1.00;;;;;;5060054;28;20428;-36
2023/01/19 03:52:04;;;;;;;11.07;8.87;;;-0.60;1.00;;;;;;5059627;28;20732;-36
2023/01/19 03:54:30;;;;;;;11.60;10.40;;;-0.70;1.00;;;;;;5060200;28;20478;-36
2023/01/19 03:56:55;;;;;;;10.67;8.80;;;-0.70;1.00;;;;;;5058996;28;20498;-38
2023/01/19 03:59:21;;;;;;;10.03;9.03;;;-0.70;1.00;;;;;;5059397;28;20424;-40
2023/01/19 04:01:47;;;;;;;11.87;9.10;;;-0.70;1.00;;;;;;5059491;28;20569;-37
2023/01/19 04:04:14;;;;;;;10.17;8.60;;;-0.70;1.00;;;;;;5058384;28;20239;-39
2023/01/19 04:06:40;;;;;;;11.30;8.93;;;-0.70;1.00;;;;;;5059222;28;20478;-41
2023/01/19 04:09:06;;;;;;;11.03;9.53;;;-0.80;1.00;;;;;;5059753;28;20425;-39
2023/01/19 04:11:32;;;;;;;11.10;9.67;;;-0.80;1.00;;;;;;5059854;28;20428;-36
2023/01/19 04:13:58;;;;;;;14.00;9.57;;;-0.80;1.00;;;;;;5059980;28;20438;-38
2023/01/19 04:16:24;;;;;;;15.00;10.80;;;-0.80;1.00;;;;;;5059898;28;20178;-37
2023/01/19 04:18:51;;;;;;;12.50;10.30;;;-0.80;1.00;;;;;;5060313;28;20268;-39
2023/01/19 04:21:19;;;;;;;11.23;9.90;;;-0.90;1.00;;;;;;5059020;28;20467;-36
2023/01/19 04:23:44;;;;;;;13.80;11.00;;;-0.80;1.00;;;;;;5058602;28;20540;-36
2023/01/19 04:26:10;;;;;;;14.40;10.77;;;-0.80;1.00;;;;;;5059655;28;20523;-37
2023/01/19 04:28:36;;;;;;;13.43;12.00;;;-0.90;1.00;;;;;;5059386;28;20404;-40
2023/01/19 04:31:03;;;;;;;13.57;11.73;;;-0.90;1.00;;;;;;5059535;28;20440;-40
2023/01/19 04:33:29;;;;;;;16.80;10.83;;;-0.90;10.30;;;;;;5059923;28;20408;-37
2023/01/19 04:35:55;;;;;;;13.90;11.07;;;-0.80;90.00;;;;;;5059851;28;20436;-36
2023/01/19 04:38:21;;;;;;;14.80;12.20;;;-0.80;99.90;;;;;;5059516;28;20174;-37
2023/01/19 04:40:51;;;;;;;16.73;11.13;;;-0.80;99.90;;;;;;5058440;28;20553;-36
2023/01/19 04:43:20;;;;;;;13.20;10.67;;;-0.80;99.90;;;;;;5059803;28;20439;-42
2023/01/19 04:45:46;;;;;;;12.83;11.07;;;-0.80;99.90;;;;;;5058964;28;20432;-38
2023/01/19 04:48:12;;;;;;;14.23;12.07;;;-0.70;99.90;;;;;;5059329;28;20684;-40
2023/01/19 04:50:38;;;;;;;13.90;11.30;;;-0.70;99.90;;;;;;5045341;28;20190;-38
2023/01/19 04:53:04;;;;;;;16.20;11.80;;;-0.70;1.00;;;;;;5039320;28;20436;-37
2023/01/19 04:55:29;;;;;;;16.00;12.03;;;-0.70;1.00;;;;;;5039310;28;20171;-37
2023/01/19 04:57:55;;;;;;;16.03;11.23;;;-0.70;1.00;;;;;;5038865;28;20187;-36
2023/01/19 05:00:22;;;;;;;15.17;12.40;;;-0.70;1.00;;;;;;5038559;28;20272;-42
2023/01/19 05:02:48;;;;;;;16.50;11.53;;;-0.60;1.00;;;;;;5038151;28;20184;-36
2023/01/19 05:05:13;;;;;;;13.00;11.60;;;-0.60;1.00;;;;;;5038811;28;20413;-37
2023/01/19 05:07:39;;;;;;;15.30;13.10;;;-0.60;1.00;;;;;;5039299;28;20190;-37
2023/01/19 05:10:05;;;;;;;15.23;11.60;;;-0.60;1.00;;;;;;5038610;28;20501;-38
2023/01/19 05:12:32;;;;;;;13.53;11.57;;;-0.60;1.00;;;;;;5038740;28;20520;-37
2023/01/19 05:14:58;;;;;;;18.23;11.67;;;-0.70;1.00;;;;;;5038273;28;20413;-40
2023/01/19 05:17:23;;;;;;;15.13;11.67;;;-0.70;1.00;;;;;;5037769;28;20487;-39
2023/01/19 05:19:50;;;;;;;16.10;13.03;;;-0.70;1.00;;;;;;5037536;28;20333;-39
2023/01/19 05:22:15;;;;;;;16.23;11.20;;;-0.70;1.00;;;;;;5037182;28;20595;-38
2023/01/19 05:24:41;;;;;;;14.70;12.13;;;-0.70;99.90;;;;;;5037500;28;20420;-38
2023/01/19 05:27:07;;;;;;;13.83;11.47;;;-0.70;99.90;;;;;;5037310;28;20202;-38
2023/01/19 05:29:33;;;;;;;13.07;11.57;;;-0.70;99.90;;;;;;5038119;28;20154;-45
2023/01/19 05:31:59;;;;;;;14.83;11.73;;;-0.70;99.90;;;;;;5037873;28;20940;-36
2023/01/19 05:34:24;;;;;;;12.97;11.07;;;-0.80;99.90;;;;;;5037982;28;20182;-37
2023/01/19 05:36:50;;;;;;;13.00;10.60;;;-0.70;99.90;;;;;;5037767;28;20479;-38
2023/01/19 05:39:16;;;;;;;16.17;11.63;;;-0.80;99.90;;;;;;5036749;28;20190;-41
2023/01/19 05:41:44;;;;;;;17.50;12.67;;;-0.80;99.90;;;;;;5037763;28;20217;-40
2023/01/19 05:44:10;;;;;;;17.63;12.47;;;-0.80;99.90;;;;;;5037038;28;20436;-40
2023/01/19 05:46:36;;;;;;;15.50;12.07;;;-0.90;99.90;;;;;;5036333;28;20635;-39
2023/01/19 05:49:03;;;;;;;14.73;11.93;;;-0.80;99.90;;;;;;5036362;28;20855;-37
2023/01/19 05:51:33;;;;;;;14.80;11.50;;;-0.90;99.90;;;;;;5019672;28;20570;-37
2023/01/19 05:54:00;;;;;;;12.97;10.40;;;-0.90;99.90;;;;;;5036075;28;20435;-42
2023/01/19 05:56:26;;;;;;;13.37;11.60;;;-0.90;99.90;;;;;;5036359;28;20492;-39
2023/01/19 05:58:51;;;;;;;21.00;12.00;;;-0.90;99.90;;;;;;5035409;28;20567;-41
2023/01/19 06:01:17;;;;;;;12.57;11.00;;;-0.90;99.90;;;;;;5036904;28;20479;-43
2023/01/19 06:03:42;;;;;;;15.13;11.13;;;-1.00;99.90;;;;;;5035632;28;20220;-40
2023/01/19 06:06:08;;;;;;;18.00;11.07;;;-1.00;84.10;;;;;;5036043;28;20186;-39
2023/01/19 06:08:34;;;;;;;12.60;11.10;;;-1.00;48.80;;;;;;5035419;28;20185;-41
2023/01/19 06:11:00;;;;;;;12.17;10.33;;;-1.00;52.30;;;;;;5033592;28;20907;-36
2023/01/19 06:13:26;;;;;;;12.80;10.43;;;-1.00;34.30;;;;;;5034796;28;20235;-39
2023/01/19 06:15:59;;;;;;;12.27;10.07;;;-1.10;89.70;;;;;;5034477;28;20433;-39
2023/01/19 06:18:24;;;;;;;12.73;9.70;;;-1.10;99.90;;;;;;5035617;28;20418;-40
2023/01/19 06:20:51;;;;;;;11.97;9.90;;;-1.10;99.90;;;;;;5033186;28;20606;-40
2023/01/19 06:23:17;;;;;;;13.07;10.40;;;-1.10;99.90;;;;;;5033540;28;20197;-38
2023/01/19 06:25:42;;;;;;;16.00;10.77;;;-1.10;99.90;;;;;;5034164;28;20452;-36
2023/01/19 06:28:08;;;;;;;14.93;11.03;;;-1.10;99.90;;;;;;5033512;28;20500;-39
2023/01/19 06:30:33;;;;;;;14.00;11.00;;;-1.10;99.90;;;;;;5032005;28;20265;-40
2023/01/19 06:33:00;;;;;;;15.57;10.33;;;-1.10;99.90;;;;;;5038025;28;20177;-39
2023/01/19 06:35:27;;;;;;;11.20;9.30;;;-1.10;99.90;;;;;;5052445;28;20177;-42
2023/01/19 06:37:53;;;;;;;14.10;10.03;;;-1.10;99.90;;;;;;5050245;28;20832;-42
2023/01/19 06:40:18;;;;;;;11.57;10.20;;;-1.10;99.90;;;;;;5049696;28;20479;-38
2023/01/19 06:42:44;;;;;;;11.80;9.93;;;-1.00;99.90;;;;;;5049888;28;20189;-39
2023/01/19 06:45:10;;;;;;;12.90;9.87;;;-1.00;99.90;;;;;;5048894;28;20166;-37
2023/01/19 06:47:35;;;;;;;12.97;10.03;;;-1.00;1.00;;;;;;5049267;28;20395;-38
2023/01/19 06:50:02;;;;;;;11.70;8.90;;;-1.00;1.00;;;;;;5050328;28;20687;-43
2023/01/19 06:52:27;;;;;;;11.73;9.80;;;-0.90;1.00;;;;;;5051741;28;20182;-43
2023/01/19 06:54:53;;;;;;;13.87;8.60;;;-0.90;1.00;;;;;;5050512;28;20527;-39
2023/01/19 06:57:19;;;;;;;12.67;10.40;;;-0.90;1.00;;;;;;5051824;28;20252;-39
2023/01/19 06:59:44;;;;;;;13.30;11.37;;;-0.90;1.00;;;;;;5053494;28;20197;-40
2023/01/19 07:02:10;;;;;;;12.57;9.43;;;-0.90;1.00;;;;;;5053597;28;20178;-39
2023/01/19 07:04:36;;;;;;;11.10;8.83;;;-0.90;1.00;;;;;;5051576;28;20294;-43
2023/01/19 07:07:01;;;;;;;12.17;9.30;;;-0.90;1.00;;;;;;5050837;28;20428;-38
2023/01/19 07:09:27;;;;;;;11.23;8.60;;;-0.80;1.00;;;;;;5049774;28;20169;-43
2023/01/19 07:11:53;;;;;;;10.90;9.00;;;-0.80;99.90;;;;;;5050771;28;20181;-40
2023/01/19 07:14:19;;;;;;;11.00;8.50;;;-0.80;99.90;;;;;;5052746;28;20173;-40
2023/01/19 07:16:45;;;;;;;10.93;8.87;;;-0.80;99.90;;;;;;5052023;28;20432;-42
2023/01/19 07:19:13;;;;;;;11.77;8.70;;;-0.80;99.90;;;;;;5055152;28;20968;-41
2023/01/19 07:21:38;;;;;;;11.03;8.83;;;-0.80;99.90;;;;;;5055018;28;20284;-36
2023/01/19 07:24:04;;;;;;;9.40;7.70;;;-0.70;99.90;;;;;;5055756;28;20443;-40
2023/01/19 07:26:30;;;;;;;12.20;8.90;;;-0.70;99.90;;;;;;5055660;28;20428;-39
2023/01/19 07:28:56;;;;;;;11.90;8.20;;;-0.70;99.90;;;;;;5054297;28;20507;-38
2023/01/19 07:31:21;;;;;;;10.33;9.07;;;-0.70;99.90;;;;;;5055415;28;20178;-44
2023/01/19 07:33:47;;;;;;;11.10;8.97;;;-0.60;99.90;;;;;;5056624;28;20194;-38
2023/01/19 07:36:13;;;;;;;12.73;8.57;;;-0.60;99.90;;;;;;5055843;28;20190;-38
2023/01/19 07:38:38;;;;;;;10.77;8.43;;;-0.60;34.40;;;;;;5056149;28;20695;-38
2023/01/19 07:41:07;;;;;;;10.60;8.40;;;-0.60;1.00;;;;;;5053042;28;20296;-39
2023/01/19 07:43:33;;;;;;;8.80;8.00;;;-0.60;1.00;;;;;;5053150;28;20170;-37
2023/01/19 07:46:00;;;;;;;10.90;8.50;;;-0.50;1.00;;;;;;5051632;28;20424;-37
2023/01/19 07:48:26;;;;;;;10.83;8.13;;;-0.50;1.00;;;;;;5049096;28;20440;-38
2023/01/19 07:50:52;;;;;;;12.83;8.37;;;-0.30;1.00;;;;;;5052278;28;20540;-39
2023/01/19 07:53:18;;;;;;;10.40;8.40;;;-0.10;1.00;;;;;;5053254;28;20496;-38
2023/01/19 07:55:44;;;;;;;11.07;8.03;;;0.20;99.90;;;;;;5052485;28;21006;-40
2023/01/19 07:58:09;;;;;;;8.60;7.63;;;0.40;22.60;;;;;;5054876;28;20419;-42
2023/01/19 08:00:37;;;;;;;9.33;8.33;;;0.60;1.00;;;;;;5055245;28;20481;-41
2023/01/19 08:03:03;;;;;;;9.73;6.60;;;0.70;99.90;;;;;;5057080;28;20173;-43
2023/01/19 08:05:29;;;;;;;12.00;8.10;;;0.70;99.90;;;;;;5056815;28;20426;-45
2023/01/19 08:07:59;;;;;;;9.13;7.70;;;0.80;99.90;;;;;;5057120;28;20423;-42
2023/01/19 08:10:26;;;;;;;10.60;8.70;;;1.10;99.90;;;;;;5056602;28;20412;-39
2023/01/19 08:12:55;;;;;;;13.87;9.23;;;1.40;99.90;;;;;;5058061;28;20700;-37
2023/01/19 08:15:22;;;;;;;12.53;9.77;;;1.80;11.90;;;;;;5057825;28;20481;-40
2023/01/19 08:17:59;;;;;;;9.43;8.53;;;2.00;1.00;;;;;;5072424;28;20423;-37
2023/01/19 08:20:26;;;;;;;12.77;8.87;;;2.30;1.00;;;;;;5057429;28;20638;-38
2023/01/19 08:22:58;;;;;;;11.00;7.87;;;2.40;1.00;;;;;;5057899;28;20401;-39
2023/01/19 08:25:34;;;;;;;11.10;7.50;;;2.40;1.00;;;;;;5057791;28;20887;-39
2023/01/19 08:28:00;;;;;;;8.60;7.60;;;2.40;99.90;;;;;;5056629;28;20455;-37
2023/01/19 08:30:26;;;;;;;10.00;7.83;;;2.30;1.00;;;;;;5056753;28;20949;-38
2023/01/19 08:33:02;;;;;;;8.50;7.60;;;2.60;1.00;;;;;;5057537;28;20420;-38
2023/01/19 08:35:32;;;;;;;7.13;6.43;;;2.90;1.00;;;;;;5054191;28;20588;-37
2023/01/19 08:38:00;;;;;;;9.07;7.40;;;3.50;99.90;;;;;;5055489;28;20420;-37
2023/01/19 08:40:27;;;;;;;7.77;6.80;;;3.90;99.90;;;;;;5056137;28;20471;-38
2023/01/19 08:42:59;;;;;;;9.63;7.97;;;4.40;99.90;;;;;;5055390;28;20438;-38
2023/01/19 08:45:26;;;;;;;8.90;8.00;;;4.90;99.90;;;;;;5055987;28;20397;-39
2023/01/19 08:47:51;;;;;;;10.13;7.57;;;5.40;99.90;;;;;;5055997;28;20426;-40
2023/01/19 08:50:17;;;;;;;8.13;7.30;;;6.00;37.20;;;;;;5056784;28;20886;-41
2023/01/19 08:52:42;;;;;;;8.97;7.70;;;6.50;1.00;;;;;;5056296;28;20186;-38
2023/01/19 08:55:10;;;;;;;9.13;7.50;;;7.00;1.00;;;;;;5067404;28;20177;-38
2023/01/19 08:57:35;;;;;;;8.43;7.33;;;7.40;1.00;;;;;;5060052;28;20578;-39
2023/01/19 09:00:03;;;;;;;8.20;6.93;;;7.50;1.00;;;;;;5058168;28;20498;-38
2023/01/19 09:02:29;;;;;;;7.20;6.50;;;7.50;1.00;;;;;;5057155;28;20185;-37
2023/01/19 09:04:54;;;;;;;7.57;6.80;;;7.40;1.00;;;;;;5057657;28;20417;-39
2023/01/19 09:07:20;;;;;;;7.47;6.27;;;7.40;1.00;;;;;;5057270;28;20866;-40
2023/01/19 09:09:46;;;;;;;6.57;5.97;;;7.80;1.00;;;;;;5057737;28;20216;-39
2023/01/19 09:12:11;;;;;;;6.67;5.97;;;8.30;1.00;;;;;;5058210;28;20239;-43
2023/01/19 09:14:37;;;;;;;7.97;6.00;;;8.50;1.00;;;;;;5056419;28;20189;-38
2023/01/19 09:17:05;;;;;;;5.97;5.40;;;8.80;1.00;;;;;;5057267;28;20236;-39
2023/01/19 09:19:30;;;;;;;7.77;6.07;;;8.70;1.00;;;;;;5057348;28;20578;-37
2023/01/19 09:21:58;;;;;;;8.60;6.70;;;8.60;1.00;;;;;;5057125;28;20531;-45
2023/01/19 09:24:24;;;;;;;7.07;6.30;;;8.60;1.00;;;;;;5056093;28;20166;-38
2023/01/19 09:26:49;;;;;;;7.50;6.17;;;8.60;1.00;;;;;;5057505;28;20432;-39
2023/01/19 09:29:15;;;;;;;6.07;5.37;;;8.80;1.00;;;;;;5057594;28;20177;-38
2023/01/19 09:31:42;;;;;;;7.00;6.30;;;9.20;1.00;;;;;;5057228;28;20221;-46
2023/01/19 09:34:09;;;;;;;7.13;6.43;;;9.60;1.00;;;;;;5057328;28;20186;-37
2023/01/19 09:36:36;;;;;;;6.77;6.10;;;9.60;1.00;;;;;;5057612;28;20436;-37
2023/01/19 09:39:03;;;;;;;8.00;6.17;;;10.00;1.00;;;;;;5072353;28;20579;-38
2023/01/19 09:41:28;;;;;;;6.40;5.50;;;10.50;1.00;;;;;;5055679;28;20636;-38
2023/01/19 09:43:57;;;;;;;7.83;5.20;;;11.20;1.00;;;;;;5057144;28;20528;-38
2023/01/19 09:46:38;;;;;;;6.20;5.60;;;11.80;1.00;;;;;;5056930;28;20182;-41
2023/01/19 09:49:16;;;;;;;6.47;5.87;;;12.30;1.00;;;;;;5057459;28;20521;-42
2023/01/19 09:51:47;;;;;;;7.10;6.40;;;12.30;1.00;;;;;;5055708;28;20593;-38
2023/01/19 09:54:16;;;;;;;6.63;5.93;;;12.20;1.00;;;;;;5056285;28;20412;-39
2023/01/19 09:56:43;;;;;;;6.20;5.70;;;11.90;1.00;;;;;;5056929;28;20428;-39
2023/01/19 09:59:28;;;;;;;8.23;5.73;;;11.50;1.00;;;;;;5056053;28;20451;-39
2023/01/19 10:02:12;;;;;;;6.07;5.37;;;11.00;1.00;;;;;;5055225;28;20432;-41
2023/01/19 10:04:56;;;;;;;7.00;6.23;;;10.80;1.00;;;;;;5056317;28;20408;-40
2023/01/19 10:07:37;;;;;;;7.73;5.37;;;10.40;1.00;;;;;;5057068;28;20416;-38
2023/01/19 10:10:12;;;;;;;5.60;5.10;;;10.00;1.00;;;;;;5056733;28;20408;-39
2023/01/19 10:12:51;;;;;;;6.87;6.10;;;9.80;1.00;;;;;;5055730;28;20416;-42
2023/01/19 10:15:37;;;;;;;6.33;5.73;;;9.40;1.00;;;;;;5056161;28;20452;-38
2023/01/19 10:18:24;;;;;;;6.57;5.97;;;9.10;1.00;;;;;;5014279;28;20471;-39
2023/01/19 10:20:54;;;;;;;6.23;5.47;;;8.60;1.00;;;;;;5056040;28;20538;-38
2023/01/19 10:23:45;;;;;;;6.73;6.03;;;8.30;1.00;;;;;;5054417;28;20412;-44
2023/01/19 10:26:26;;;;;;;7.17;6.50;;;8.00;1.00;;;;;;5055441;28;20724;-43
2023/01/19 10:28:56;;;;;;;7.43;6.67;;;7.70;1.00;;;;;;5055981;28;20404;-39
2023/01/19 10:31:23;;;;;;;7.47;6.07;;;7.60;1.00;;;;;;5056472;28;20436;-40
2023/01/19 10:33:49;;;;;;;6.87;5.70;;;7.40;1.00;;;;;;5056503;28;20416;-40
2023/01/19 10:36:32;;;;;;;7.63;6.57;;;7.20;1.00;;;;;;5055794;28;20432;-39
2023/01/19 10:38:58;;;;;;;6.60;5.90;;;7.10;1.00;;;;;;5053801;28;20458;-44
2023/01/19 10:41:40;;;;;;;7.77;6.40;;;7.10;1.00;;;;;;5054443;28;20525;-44
2023/01/19 10:44:08;;;;;;;7.57;6.40;;;7.10;1.00;;;;;;5053106;28;20750;-43
2023/01/19 10:46:37;;;;;;;7.90;6.20;;;7.10;1.00;;;;;;5054022;28;20424;-44
2023/01/19 10:49:03;;;;;;;7.20;6.60;;;7.10;1.00;;;;;;5053983;28;20427;-39
2023/01/19 10:51:28;;;;;;;6.57;5.90;;;7.30;1.00;;;;;;5052457;28;20428;-40
2023/01/19 10:54:02;;;;;;;6.03;5.10;;;7.50;1.00;;;;;;5053968;28;20419;-39
2023/01/19 10:56:35;;;;;;;5.37;3.33;;;7.90;99.90;;;;;;5052770;28;20181;-39
2023/01/19 10:59:03;;;;;;;4.03;3.20;;;9.40;99.90;;;;;;5054457;28;20428;-38
2023/01/19 11:01:29;;;;;;;4.77;3.80;;;10.50;1.00;;;;;;5055037;28;20500;-39
2023/01/19 11:04:04;;;;;;;3.57;3.27;;;11.40;99.90;;;;;;5054264;28;20545;-38
2023/01/19 11:06:31;;;;;;;4.33;3.43;;;12.10;1.00;;;;;;5056045;28;20424;-44
2023/01/19 11:09:13;;;;;;;4.20;3.70;;;13.40;1.00;;;;;;5055603;28;20416;-38
2023/01/19 11:11:44;;;;;;;4.03;2.97;;;14.60;1.00;;;;;;5054525;28;20959;-42
2023/01/19 11:14:16;;;;;;;5.20;3.37;;;15.10;99.90;;;;;;5054429;28;20789;-39
2023/01/19 11:16:50;;;;;;;4.13;3.20;;;15.50;18.00;;;;;;5053291;28;20432;-44
2023/01/19 11:19:23;;;;;;;4.43;3.37;;;15.90;1.00;;;;;;5052998;28;20746;-39
2023/01/19 11:21:49;;;;;;;4.00;3.33;;;16.20;1.00;;;;;;5056356;28;20471;-42
2023/01/19 11:24:15;;;;;;;4.37;3.07;;;16.60;1.00;;;;;;5055641;28;20494;-41
2023/01/19 11:26:44;;;;;;;4.23;3.30;;;17.80;1.00;;;;;;5057804;28;20264;-40
2023/01/19 11:29:26;;;;;;;4.73;4.10;;;19.50;1.00;;;;;;5056741;28;20541;-39
2023/01/19 11:31:52;;;;;;;3.73;3.23;;;21.10;1.00;;;;;;5055404;28;20933;-44
2023/01/19 11:34:21;;;;;;;4.30;3.60;;;22.30;1.00;;;;;;5054054;28;20416;-41
2023/01/19 11:37:15;;;;;;;4.13;3.73;;;23.30;1.00;;;;;;5056008;28;20544;-40
2023/01/19 11:39:55;;;;;;;4.13;3.73;;;24.10;1.00;;;;;;5045329;28;20514;-42
2023/01/19 11:42:21;;;;;;;4.07;3.60;;;25.00;1.00;;;;;;5055022;28;20523;-45
2023/01/19 11:44:56;;;;;;;5.33;3.70;;;25.10;1.00;;;;;;5054912;28;20927;-50
2023/01/19 11:47:31;;;;;;;3.67;2.90;;;24.70;1.00;;;;;;5056716;28;20481;-41
2023/01/19 11:50:11;;;;;;;3.90;3.50;;;23.80;1.00;;;;;;5059414;28;20439;-40
2023/01/19 11:52:43;;;;;;;4.00;3.50;;;23.00;1.00;;;;;;5057798;28;20727;-41
2023/01/19 11:55:24;;;;;;;4.50;3.50;;;22.40;1.00;;;;;;5057492;28;20450;-44
2023/01/19 11:57:51;;;;;;;4.00;3.30;;;22.10;1.00;;;;;;5055565;28;20435;-40
2023/01/19 12:00:21;;;;;;;4.20;3.03;;;21.90;1.00;;;;;;5056549;28;20459;-40
2023/01/19 12:02:52;;;;;;;4.47;3.20;;;21.60;1.00;;;;;;5057010;28;20443;-39
2023/01/19 12:05:19;;;;;;;5.10;3.93;;;21.30;1.00;;;;;;5057363;28;20420;-45
2023/01/19 12:07:45;;;;;;;5.00;3.53;;;20.80;1.00;;;;;;5056229;28;20420;-41
2023/01/19 12:10:20;;;;;;;4.00;3.07;;;20.30;1.00;;;;;;5055011;28;20451;-39
2023/01/19 12:12:46;;;;;;;4.10;3.17;;;19.70;1.00;;;;;;5054258;28;20757;-40
2023/01/19 12:15:29;;;;;;;4.37;3.43;;;19.20;1.00;;;;;;5055960;28;20412;-40
2023/01/19 12:17:58;;;;;;;3.17;2.83;;;18.80;1.00;;;;;;5055696;28;20467;-43
2023/01/19 12:20:29;;;;;;;5.70;3.30;;;18.40;1.00;;;;;;5054745;28;20507;-41
2023/01/19 12:23:18;;;;;;;5.20;3.70;;;18.10;1.00;;;;;;5054873;28;20823;-42
2023/01/19 12:25:55;;;;;;;4.60;3.90;;;17.90;1.00;;;;;;5046569;28;20440;-40
2023/01/19 12:28:29;;;;;;;5.87;3.53;;;17.70;1.00;;;;;;5057719;28;20458;-43
2023/01/19 12:30:56;;;;;;;3.80;3.03;;;17.40;1.00;;;;;;5058151;28;20518;-39
2023/01/19 12:33:25;;;;;;;4.03;3.67;;;17.10;1.00;;;;;;5057117;28;20672;-39
2023/01/19 12:35:56;;;;;;;4.50;3.90;;;16.80;1.00;;;;;;5056796;28;20466;-39
2023/01/19 12:38:41;;;;;;;4.90;3.13;;;16.60;1.00;;;;;;5058200;28;20419;-43
2023/01/19 12:41:28;;;;;;;4.23;3.00;;;16.30;1.00;;;;;;5054315;28;20472;-39
2023/01/19 12:44:15;;;;;;;5.13;2.87;;;16.00;1.00;;;;;;5057808;28;20580;-40
2023/01/19 12:46:40;;;;;;;4.60;3.10;;;15.70;1.00;;;;;;5057273;28;20425;-39
2023/01/19 12:49:26;;;;;;;3.30;2.80;;;15.30;1.00;;;;;;5057774;28;20416;-42
2023/01/19 12:52:08;;;;;;;3.50;3.00;;;15.10;1.00;;;;;;5053660;28;20193;-40
2023/01/19 12:54:34;;;;;;;8.43;3.03;;;15.00;1.00;;;;;;5057000;28;20408;-43
2023/01/19 12:57:02;;;;;;;3.80;2.63;;;15.00;1.00;;;;;;5055669;28;20537;-40
2023/01/19 12:59:30;;;;;;;5.70;3.43;;;14.90;1.00;;;;;;5054449;28;20196;-38
2023/01/19 13:02:17;;;;;;;3.67;2.83;;;14.90;1.00;;;;;;5054343;28;20472;-38
2023/01/19 13:05:23;;;;;;;6.93;3.83;;;14.80;1.00;;;;;;5056961;28;20396;-39
2023/01/19 13:08:01;;;;;;;4.43;3.80;;;14.70;1.00;;;;;;5057126;28;20470;-39
2023/01/19 13:10:54;;;;;;;5.67;3.93;;;14.10;1.00;;;;;;5057093;28;20816;-40
2023/01/19 13:13:25;;;;;;;4.77;4.27;;;13.30;1.00;;;;;;5057209;28;20415;-39
2023/01/19 13:15:53;;;;;;;6.30;4.40;;;12.50;1.00;;;;;;5057608;28;20451;-38